Time,TemperatureF,DewpointF,PressureIn,WindDirection,WindDirectionDegrees,WindSpeedMPH,WindSpeedGustMPH,Humidity,HourlyPrecipIn,Conditions,Clouds,dailyrainin,SoftwareType,DateUTC
2013-10-16 00:05:00,62.1,60.7,29.81,SW,219,7.0,8.0,95,0.00,,,0.00,Wunderground v.1.15,2013-10-16 04:05:00,
2013-10-16 00:15:00,62.3,61.1,29.81,SW,217,8.0,9.0,96,0.00,,,0.00,Wunderground v.1.15,2013-10-16 04:15:00,
2013-10-16 00:20:00,62.3,61.1,29.81,SW,232,8.0,11.0,96,0.00,,,0.00,Wunderground v.1.15,2013-10-16 04:20:00,
2013-10-16 00:30:00,62.4,60.9,29.81,SSW,200,7.0,7.0,95,0.00,,,0.00,Wunderground v.1.15,2013-10-16 04:30:00,
2013-10-16 00:40:00,62.5,61.0,29.80,SSW,212,7.0,7.0,95,0.00,,,0.00,Wunderground v.1.15,2013-10-16 04:40:00,
2013-10-16 00:50:00,62.5,61.0,29.80,SSW,203,7.0,7.0,95,0.00,,,0.00,Wunderground v.1.15,2013-10-16 04:50:00,
2013-10-16 01:00:00,62.5,61.0,29.80,SW,228,6.0,6.0,95,0.00,,,0.00,Wunderground v.1.15,2013-10-16 05:00:00,
2013-10-16 01:05:00,62.5,61.0,29.80,SW,236,6.0,6.0,95,0.00,,,0.00,Wunderground v.1.15,2013-10-16 05:05:00,
2013-10-16 01:10:00,62.5,61.0,29.80,WSW,252,6.0,7.0,95,0.00,,,0.00,Wunderground v.1.15,2013-10-16 05:10:00,
2013-10-16 01:20:00,62.4,60.9,29.80,SW,215,5.0,5.0,95,0.00,,,0.00,Wunderground v.1.15,2013-10-16 05:20:00,
2013-10-16 01:30:00,62.3,60.8,29.80,SW,228,5.0,5.0,95,0.00,,,0.00,Wunderground v.1.15,2013-10-16 05:30:00,
2013-10-16 01:35:00,62.2,60.8,29.80,SSW,206,4.0,5.0,95,0.00,,,0.00,Wunderground v.1.15,2013-10-16 05:35:00,
2013-10-16 01:45:00,62.1,60.7,29.80,WSW,237,5.0,5.0,95,0.00,,,0.00,Wunderground v.1.15,2013-10-16 05:45:00,
2013-10-16 01:50:00,61.9,60.5,29.80,WSW,254,5.0,5.0,95,0.00,,,0.00,Wunderground v.1.15,2013-10-16 05:50:00,
2013-10-16 02:00:00,61.8,60.4,29.80,SSW,213,5.0,5.0,95,0.00,,,0.00,Wunderground v.1.15,2013-10-16 06:00:00,
2013-10-16 02:05:00,61.8,60.4,29.80,SW,231,5.0,5.0,95,0.00,,,0.00,Wunderground v.1.15,2013-10-16 06:05:00,
2013-10-16 02:15:00,61.8,60.1,29.80,SSW,209,6.0,7.0,94,0.00,,,0.00,Wunderground v.1.15,2013-10-16 06:15:00,
2013-10-16 02:20:00,61.8,60.1,29.80,SSW,204,5.0,6.0,94,0.00,,,0.00,Wunderground v.1.15,2013-10-16 06:20:00,
2013-10-16 02:25:00,61.8,60.1,29.80,SSW,203,6.0,6.0,94,0.00,,,0.00,Wunderground v.1.15,2013-10-16 06:25:00,
2013-10-16 02:30:00,61.7,60.0,29.80,SW,216,5.0,5.0,94,0.00,,,0.00,Wunderground v.1.15,2013-10-16 06:30:00,
2013-10-16 02:40:00,61.4,59.7,29.80,SW,231,5.0,5.0,94,0.00,,,0.00,Wunderground v.1.15,2013-10-16 06:40:00,
2013-10-16 02:50:00,61.2,59.5,29.80,SW,219,4.0,4.0,94,0.00,,,0.00,Wunderground v.1.15,2013-10-16 06:50:00,
2013-10-16 03:00:00,61.0,59.3,29.81,SW,219,3.0,4.0,94,0.00,,,0.00,Wunderground v.1.15,2013-10-16 07:00:00,
2013-10-16 03:05:00,60.8,59.4,29.80,SW,217,4.0,4.0,95,0.00,,,0.00,Wunderground v.1.15,2013-10-16 07:05:00,
2013-10-16 09:10:00,55.6,51.8,29.80,West,261,4.0,4.0,87,0.00,,,0.00,Wunderground v.1.15,2013-10-16 13:10:00,
2013-10-16 09:20:00,56.0,51.9,29.81,WSW,242,4.0,4.0,86,0.00,,,0.00,Wunderground v.1.15,2013-10-16 13:20:00,
2013-10-16 09:30:00,56.3,51.5,29.81,SW,220,5.0,6.0,84,0.00,,,0.00,Wunderground v.1.15,2013-10-16 13:30:00,
2013-10-16 09:40:00,56.4,51.3,29.81,WSW,240,6.0,6.0,83,0.00,,,0.00,Wunderground v.1.15,2013-10-16 13:40:00,
2013-10-16 09:45:00,56.6,51.2,29.80,WSW,253,5.0,6.0,82,0.00,,,0.00,Wunderground v.1.15,2013-10-16 13:45:00,
2013-10-16 10:40:00,56.7,48.9,29.81,SW,227,8.0,8.0,75,0.00,,,0.00,Wunderground v.1.15,2013-10-16 14:40:00,
2013-10-16 10:45:00,57.4,49.5,29.81,WSW,241,7.0,8.0,75,0.00,,,0.00,Wunderground v.1.15,2013-10-16 14:45:00,
2013-10-16 10:55:00,57.0,48.8,29.81,SSW,210,9.0,11.0,74,0.00,,,0.00,Wunderground v.1.15,2013-10-16 14:55:00,
2013-10-16 11:05:00,56.9,48.0,29.80,SW,217,10.0,10.0,72,0.00,,,0.00,Wunderground v.1.15,2013-10-16 15:05:00,
2013-10-16 11:15:00,56.9,48.3,29.80,SW,234,8.0,11.0,73,0.00,,,0.00,Wunderground v.1.15,2013-10-16 15:15:00,
2013-10-16 11:20:00,57.5,48.5,29.80,SW,229,7.0,8.0,72,0.00,,,0.00,Wunderground v.1.15,2013-10-16 15:20:00,
2013-10-16 11:40:00,57.6,48.3,29.81,WSW,240,8.0,8.0,71,0.00,,,0.00,Wunderground v.1.15,2013-10-16 15:40:00,
2013-10-16 11:45:00,57.8,48.1,29.81,West,280,7.0,8.0,70,0.00,,,0.00,Wunderground v.1.15,2013-10-16 15:45:00,
2013-10-16 11:55:00,58.0,47.5,29.80,SW,220,8.0,8.0,68,0.00,,,0.00,Wunderground v.1.15,2013-10-16 15:55:00,
2013-10-16 12:05:00,58.1,47.2,29.80,SW,236,9.0,11.0,67,0.00,,,0.00,Wunderground v.1.15,2013-10-16 16:05:00,
2013-10-16 12:10:00,58.2,47.7,29.80,WSW,238,8.0,8.0,68,0.00,,,0.00,Wunderground v.1.15,2013-10-16 16:10:00,
2013-10-16 12:45:00,59.0,47.7,29.80,WNW,301,7.0,7.0,66,0.00,,,0.00,Wunderground v.1.15,2013-10-16 16:45:00,
2013-10-16 12:50:00,59.2,47.0,29.80,WSW,239,8.0,11.0,64,0.00,,,0.00,Wunderground v.1.15,2013-10-16 16:50:00,
2013-10-16 12:55:00,59.2,47.0,29.81,WSW,239,11.0,11.0,64,0.00,,,0.00,Wunderground v.1.15,2013-10-16 16:55:00,
2013-10-16 13:05:00,58.6,47.3,29.80,West,276,9.0,12.0,66,0.00,,,0.00,Wunderground v.1.15,2013-10-16 17:05:00,
2013-10-16 13:10:00,58.5,46.8,29.80,West,281,10.0,10.0,65,0.00,,,0.00,Wunderground v.1.15,2013-10-16 17:10:00,
2013-10-16 13:15:00,58.8,46.6,29.81,WSW,249,10.0,10.0,64,0.00,,,0.00,Wunderground v.1.15,2013-10-16 17:15:00,
2013-10-16 13:25:00,59.2,47.4,29.80,WSW,254,9.0,9.0,65,0.00,,,0.00,Wunderground v.1.15,2013-10-16 17:25:00,
2013-10-16 13:35:00,58.9,46.3,29.80,SSW,207,9.0,9.0,63,0.00,,,0.00,Wunderground v.1.15,2013-10-16 17:35:00,
2013-10-16 13:40:00,59.2,47.0,29.80,WSW,240,9.0,9.0,64,0.00,,,0.00,Wunderground v.1.15,2013-10-16 17:40:00,
2013-10-16 13:50:00,58.9,47.2,29.80,NW,322,9.0,10.0,65,0.00,,,0.00,Wunderground v.1.15,2013-10-16 17:50:00,
2013-10-16 14:00:00,58.8,47.1,29.80,West,262,8.0,8.0,65,0.00,,,0.00,Wunderground v.1.15,2013-10-16 18:00:00,
2013-10-16 14:10:00,58.8,47.1,29.80,WNW,295,11.0,11.0,65,0.00,,,0.00,Wunderground v.1.15,2013-10-16 18:10:00,
2013-10-16 14:20:00,58.4,47.1,29.79,West,266,9.0,11.0,66,0.00,,,0.00,Wunderground v.1.15,2013-10-16 18:20:00,
2013-10-16 14:30:00,58.4,46.7,29.80,WNW,289,9.0,9.0,65,0.00,,,0.00,Wunderground v.1.15,2013-10-16 18:30:00,
2013-10-16 14:40:00,58.1,46.4,29.80,SW,232,10.0,18.0,65,0.00,,,0.00,Wunderground v.1.15,2013-10-16 18:40:00,
2013-10-16 14:50:00,58.0,46.7,29.80,WNW,286,10.0,10.0,66,0.00,,,0.00,Wunderground v.1.15,2013-10-16 18:50:00,
2013-10-16 15:05:00,57.5,46.2,29.80,WNW,285,9.0,9.0,66,0.00,,,0.00,Wunderground v.1.15,2013-10-16 19:05:00,
2013-10-16 15:10:00,57.2,45.9,29.80,West,269,7.0,14.0,66,0.00,,,0.00,Wunderground v.1.15,2013-10-16 19:10:00,
2013-10-16 15:20:00,56.3,45.9,29.80,SW,228,10.0,15.0,68,0.00,,,0.00,Wunderground v.1.15,2013-10-16 19:20:00,
2013-10-16 15:30:00,56.0,45.6,29.80,West,275,8.0,9.0,68,0.00,,,0.00,Wunderground v.1.15,2013-10-16 19:30:00,
2013-10-16 15:40:00,56.4,46.4,29.80,WSW,245,7.0,7.0,69,0.00,,,0.00,Wunderground v.1.15,2013-10-16 19:40:00,
2013-10-16 15:50:00,56.7,46.3,29.79,West,275,9.0,9.0,68,0.00,,,0.00,Wunderground v.1.15,2013-10-16 19:50:00,
2013-10-16 15:55:00,56.5,46.1,29.80,SW,225,8.0,12.0,68,0.00,,,0.00,Wunderground v.1.15,2013-10-16 19:55:00,
2013-10-16 16:05:00,56.4,46.4,29.80,SW,233,9.0,13.0,69,0.00,,,0.00,Wunderground v.1.15,2013-10-16 20:05:00,